sensor_id;sensor_type;location;lat;lon;timestamp;pressure;altitude;pressure_sealevel;temperature;humidity
47330;BME280;33060;50.178;7.570;2023-10-19T00:02:07;95144.47;;;12.80;100.00
47330;BME280;33060;50.178;7.570;2023-10-19T00:04:34;95145.13;;;12.82;100.00
47330;BME280;33060;50.178;7.570;2023-10-19T00:07:02;95143.09;;;12.92;100.00
47330;BME280;33060;50.178;7.570;2023-10-19T00:09:31;95136.81;;;12.93;100.00
47330;BME280;33060;50.178;7.570;2023-10-19T00:12:04;95139.00;;;12.81;100.00
47330;BME280;33060;50.178;7.570;2023-10-19T00:14:36;95140.78;;;13.05;100.00
47330;BME280;33060;50.178;7.570;2023-10-19T00:17:03;95126.22;;;12.93;100.00
47330;BME280;33060;50.178;7.570;2023-10-19T00:19:37;95134.31;;;12.99;100.00
47330;BME280;33060;50.178;7.570;2023-10-19T00:22:24;95133.16;;;12.94;100.00
47330;BME280;33060;50.178;7.570;2023-10-19T00:24:51;95132.50;;;13.00;100.00
47330;BME280;33060;50.178;7.570;2023-10-19T00:27:17;95131.47;;;13.09;100.00
47330;BME280;33060;50.178;7.570;2023-10-19T00:29:45;95136.56;;;13.19;100.00
47330;BME280;33060;50.178;7.570;2023-10-19T00:32:16;95127.66;;;13.12;100.00
47330;BME280;33060;50.178;7.570;2023-10-19T00:34:45;95128.16;;;13.15;100.00
47330;BME280;33060;50.178;7.570;2023-10-19T00:37:19;95128.53;;;13.04;100.00
47330;BME280;33060;50.178;7.570;2023-10-19T00:39:59;95136.56;;;13.19;100.00
47330;BME280;33060;50.178;7.570;2023-10-19T00:42:45;95138.75;;;13.23;100.00
47330;BME280;33060;50.178;7.570;2023-10-19T00:45:13;95143.06;;;13.24;100.00
47330;BME280;33060;50.178;7.570;2023-10-19T00:47:40;95142.72;;;13.19;100.00
47330;BME280;33060;50.178;7.570;2023-10-19T00:50:08;95136.41;;;13.28;100.00
47330;BME280;33060;50.178;7.570;2023-10-19T00:52:42;95129.34;;;13.21;100.00
47330;BME280;33060;50.178;7.570;2023-10-19T00:55:18;95128.00;;;13.25;100.00
47330;BME280;33060;50.178;7.570;2023-10-19T00:57:48;95124.13;;;13.36;100.00
47330;BME280;33060;50.178;7.570;2023-10-19T01:00:16;95115.22;;;13.28;100.00
47330;BME280;33060;50.178;7.570;2023-10-19T01:02:57;95115.22;;;13.28;100.00
47330;BME280;33060;50.178;7.570;2023-10-19T01:05:41;95113.13;;;13.08;100.00
47330;BME280;33060;50.178;7.570;2023-10-19T01:08:14;95113.75;;;13.26;100.00
47330;BME280;33060;50.178;7.570;2023-10-19T01:10:51;95113.59;;;13.27;100.00
47330;BME280;33060;50.178;7.570;2023-10-19T01:13:19;95116.41;;;13.26;100.00
47330;BME280;33060;50.178;7.570;2023-10-19T01:15:54;95112.28;;;13.23;100.00
47330;BME280;33060;50.178;7.570;2023-10-19T01:18:21;95114.25;;;13.29;100.00
47330;BME280;33060;50.178;7.570;2023-10-19T01:20:48;95115.22;;;13.28;100.00
47330;BME280;33060;50.178;7.570;2023-10-19T01:23:19;95112.28;;;13.23;100.00
47330;BME280;33060;50.178;7.570;2023-10-19T01:25:56;95114.56;;;13.35;100.00
47330;BME280;33060;50.178;7.570;2023-10-19T01:28:28;95119.50;;;13.38;100.00
47330;BME280;33060;50.178;7.570;2023-10-19T01:31:16;95117.81;;;13.45;100.00
47330;BME280;33060;50.178;7.570;2023-10-19T01:33:49;95111.03;;;13.42;100.00
47330;BME280;33060;50.178;7.570;2023-10-19T01:36:17;95113.69;;;13.42;100.00
47330;BME280;33060;50.178;7.570;2023-10-19T01:38:50;95108.19;;;13.52;100.00
47330;BME280;33060;50.178;7.570;2023-10-19T01:41:21;95109.91;;;13.37;100.00
47330;BME280;33060;50.178;7.570;2023-10-19T01:43:49;95107.81;;;13.55;100.00
47330;BME280;33060;50.178;7.570;2023-10-19T01:46:17;95104.53;;;13.53;100.00
47330;BME280;33060;50.178;7.570;2023-10-19T01:48:53;95100.72;;;13.55;100.00
47330;BME280;33060;50.178;7.570;2023-10-19T01:51:24;95090.06;;;13.64;100.00
47330;BME280;33060;50.178;7.570;2023-10-19T01:53:53;95100.25;;;13.52;100.00
47330;BME280;33060;50.178;7.570;2023-10-19T01:56:22;95096.34;;;13.40;100.00
47330;BME280;33060;50.178;7.570;2023-10-19T01:58:50;95095.13;;;13.50;100.00
47330;BME280;33060;50.178;7.570;2023-10-19T02:01:21;95100.38;;;13.58;100.00
47330;BME280;33060;50.178;7.570;2023-10-19T02:03:56;95089.88;;;13.73;100.00
47330;BME280;33060;50.178;7.570;2023-10-19T02:06:27;95085.91;;;13.69;100.00
47330;BME280;33060;50.178;7.570;2023-10-19T02:08:59;95091.75;;;13.65;100.00
47330;BME280;33060;50.178;7.570;2023-10-19T02:11:36;95084.38;;;13.75;100.00
47330;BME280;33060;50.178;7.570;2023-10-19T02:14:05;95086.59;;;13.63;100.00
47330;BME280;33060;50.178;7.570;2023-10-19T02:16:48;95078.72;;;13.78;100.00
47330;BME280;33060;50.178;7.570;2023-10-19T02:19:19;95072.03;;;13.90;100.00
47330;BME280;33060;50.178;7.570;2023-10-19T02:21:48;95073.56;;;13.84;100.00
47330;BME280;33060;50.178;7.570;2023-10-19T02:24:15;95072.25;;;13.80;100.00
47330;BME280;33060;50.178;7.570;2023-10-19T02:26:42;95071.28;;;13.81;100.00
47330;BME280;33060;50.178;7.570;2023-10-19T02:29:10;95063.53;;;13.72;100.00
47330;BME280;33060;50.178;7.570;2023-10-19T02:31:37;95070.97;;;13.76;100.00
47330;BME280;33060;50.178;7.570;2023-10-19T02:34:04;95066.31;;;13.78;100.00
47330;BME280;33060;50.178;7.570;2023-10-19T02:36:31;95061.59;;;13.89;100.00
47330;BME280;33060;50.178;7.570;2023-10-19T02:39:00;95063.38;;;13.73;100.00
47330;BME280;33060;50.178;7.570;2023-10-19T02:41:37;95064.97;;;13.82;100.00
47330;BME280;33060;50.178;7.570;2023-10-19T02:44:09;95063.31;;;13.81;100.00
47330;BME280;33060;50.178;7.570;2023-10-19T02:46:41;95063.41;;;13.88;100.00
47330;BME280;33060;50.178;7.570;2023-10-19T02:49:11;95058.94;;;13.89;100.00
47330;BME280;33060;50.178;7.570;2023-10-19T02:51:39;95064.38;;;13.95;100.00
47330;BME280;33060;50.178;7.570;2023-10-19T02:54:07;95052.25;;;14.01;100.00
47330;BME280;33060;50.178;7.570;2023-10-19T02:56:35;95071.81;;;14.00;100.00
47330;BME280;33060;50.178;7.570;2023-10-19T02:59:02;95068.34;;;13.99;100.00
47330;BME280;33060;50.178;7.570;2023-10-19T03:01:32;95069.53;;;13.89;100.00
47330;BME280;33060;50.178;7.570;2023-10-19T03:04:02;95063.22;;;13.90;100.00
47330;BME280;33060;50.178;7.570;2023-10-19T03:06:31;95064.91;;;13.91;100.00
47330;BME280;33060;50.178;7.570;2023-10-19T03:09:04;95053.06;;;14.01;100.00
47330;BME280;33060;50.178;7.570;2023-10-19T03:11:40;95054.47;;;14.12;100.00
47330;BME280;33060;50.178;7.570;2023-10-19T03:14:08;95041.03;;;14.13;100.00
47330;BME280;33060;50.178;7.570;2023-10-19T03:16:36;95040.50;;;14.18;100.00
47330;BME280;33060;50.178;7.570;2023-10-19T03:19:03;95037.34;;;14.37;100.00
47330;BME280;33060;50.178;7.570;2023-10-19T03:21:35;95039.63;;;14.40;100.00
47330;BME280;33060;50.178;7.570;2023-10-19T03:24:16;95029.47;;;14.29;100.00
47330;BME280;33060;50.178;7.570;2023-10-19T03:27:03;95022.31;;;14.30;100.00
47330;BME280;33060;50.178;7.570;2023-10-19T03:32:13;95018.84;;;14.29;100.00
47330;BME280;33060;50.178;7.570;2023-10-19T03:34:40;95023.25;;;14.37;100.00
47330;BME280;33060;50.178;7.570;2023-10-19T03:37:10;95033.03;;;14.36;100.00
47330;BME280;33060;50.178;7.570;2023-10-19T03:39:39;95024.59;;;14.33;100.00
47330;BME280;33060;50.178;7.570;2023-10-19T03:42:07;95029.34;;;14.46;100.00
47330;BME280;33060;50.178;7.570;2023-10-19T03:44:35;95025.91;;;14.37;100.00
47330;BME280;33060;50.178;7.570;2023-10-19T03:47:20;95022.22;;;14.23;100.00
47330;BME280;33060;50.178;7.570;2023-10-19T03:49:47;95010.59;;;14.24;100.00
47330;BME280;33060;50.178;7.570;2023-10-19T03:52:15;95007.78;;;14.40;100.00
47330;BME280;33060;50.178;7.570;2023-10-19T03:54:42;95011.19;;;14.34;100.00
47330;BME280;33060;50.178;7.570;2023-10-19T03:57:14;95001.66;;;14.40;100.00
47330;BME280;33060;50.178;7.570;2023-10-19T03:59:51;95003.56;;;14.31;100.00
47330;BME280;33060;50.178;7.570;2023-10-19T04:02:25;94994.91;;;14.37;100.00
47330;BME280;33060;50.178;7.570;2023-10-19T04:04:53;95001.66;;;14.40;100.00
47330;BME280;33060;50.178;7.570;2023-10-19T04:07:23;94998.50;;;14.45;100.00
47330;BME280;33060;50.178;7.570;2023-10-19T04:09:53;94985.81;;;14.55;100.00
47330;BME280;33060;50.178;7.570;2023-10-19T04:12:36;94994.47;;;14.49;100.00
47330;BME280;33060;50.178;7.570;2023-10-19T04:15:05;94995.69;;;14.46;100.00
47330;BME280;33060;50.178;7.570;2023-10-19T04:17:38;94989.22;;;14.40;100.00
47330;BME280;33060;50.178;7.570;2023-10-19T04:20:07;94990.72;;;14.58;100.00
47330;BME280;33060;50.178;7.570;2023-10-19T04:22:52;94994.84;;;14.46;100.00
47330;BME280;33060;50.178;7.570;2023-10-19T04:25:24;94994.22;;;14.58;100.00
47330;BME280;33060;50.178;7.570;2023-10-19T04:27:56;94993.19;;;14.59;100.00
47330;BME280;33060;50.178;7.570;2023-10-19T04:30:24;94987.06;;;14.59;100.00
47330;BME280;33060;50.178;7.570;2023-10-19T04:32:51;94991.03;;;14.63;100.00
47330;BME280;33060;50.178;7.570;2023-10-19T04:35:18;94988.84;;;14.52;100.00
47330;BME280;33060;50.178;7.570;2023-10-19T04:37:52;94991.25;;;14.38;100.00
47330;BME280;33060;50.178;7.570;2023-10-19T04:40:21;94984.88;;;14.48;100.00
47330;BME280;33060;50.178;7.570;2023-10-19T04:42:53;94978.78;;;14.62;100.00
47330;BME280;33060;50.178;7.570;2023-10-19T04:45:20;94984.72;;;14.64;100.00
47330;BME280;33060;50.178;7.570;2023-10-19T04:47:50;94985.16;;;14.53;100.00
47330;BME280;33060;50.178;7.570;2023-10-19T04:50:19;94982.41;;;14.46;100.00
47330;BME280;33060;50.178;7.570;2023-10-19T04:52:46;94991.00;;;14.48;100.00
47330;BME280;33060;50.178;7.570;2023-10-19T04:55:14;94995.31;;;14.49;100.00
47330;BME280;33060;50.178;7.570;2023-10-19T04:57:41;94994.28;;;14.50;100.00
47330;BME280;33060;50.178;7.570;2023-10-19T05:00:08;94989.81;;;14.51;100.00
47330;BME280;33060;50.178;7.570;2023-10-19T05:02:40;94993.56;;;14.56;100.00
47330;BME280;33060;50.178;7.570;2023-10-19T05:05:08;94995.22;;;14.57;100.00
47330;BME280;33060;50.178;7.570;2023-10-19T05:07:35;95000.19;;;14.60;100.00
47330;BME280;33060;50.178;7.570;2023-10-19T05:10:02;94993.03;;;14.61;100.00
47330;BME280;33060;50.178;7.570;2023-10-19T05:12:29;94985.97;;;14.68;100.00
47330;BME280;33060;50.178;7.570;2023-10-19T05:14:56;94990.00;;;14.64;100.00
47330;BME280;33060;50.178;7.570;2023-10-19T05:17:22;94987.06;;;14.59;100.00
47330;BME280;33060;50.178;7.570;2023-10-19T05:19:50;94983.88;;;14.63;100.00
47330;BME280;33060;50.178;7.570;2023-10-19T05:22:17;94993.28;;;14.66;100.00
47330;BME280;33060;50.178;7.570;2023-10-19T05:24:43;94986.91;;;14.60;100.00
47330;BME280;33060;50.178;7.570;2023-10-19T05:27:12;94984.44;;;14.74;100.00
47330;BME280;33060;50.178;7.570;2023-10-19T05:29:42;94983.25;;;14.61;100.00
47330;BME280;33060;50.178;7.570;2023-10-19T05:32:08;94978.94;;;14.46;100.00
47330;BME280;33060;50.178;7.570;2023-10-19T05:34:36;94990.19;;;14.48;100.00
47330;BME280;33060;50.178;7.570;2023-10-19T05:37:03;94982.22;;;14.48;100.00
47330;BME280;33060;50.178;7.570;2023-10-19T05:39:32;94990.53;;;14.59;100.00
47330;BME280;33060;50.178;7.570;2023-10-19T05:42:00;94982.34;;;14.69;100.00
47330;BME280;33060;50.178;7.570;2023-10-19T05:44:30;94982.56;;;14.45;100.00
47330;BME280;33060;50.178;7.570;2023-10-19T05:46:58;94984.59;;;14.57;100.00
47330;BME280;33060;50.178;7.570;2023-10-19T05:49:26;94977.94;;;14.61;100.00
47330;BME280;33060;50.178;7.570;2023-10-19T05:51:53;94981.69;;;14.52;100.00
47330;BME280;33060;50.178;7.570;2023-10-19T05:54:19;94982.88;;;14.64;100.00
47330;BME280;33060;50.178;7.570;2023-10-19T05:56:46;94990.47;;;14.53;100.00
47330;BME280;33060;50.178;7.570;2023-10-19T05:59:13;94986.25;;;14.58;100.00
47330;BME280;33060;50.178;7.570;2023-10-19T06:01:41;94984.78;;;14.56;100.00
47330;BME280;33060;50.178;7.570;2023-10-19T06:04:08;94982.44;;;14.61;100.00
47330;BME280;33060;50.178;7.570;2023-10-19T06:06:35;94982.91;;;14.41;100.00
47330;BME280;33060;50.178;7.570;2023-10-19T06:09:03;94995.03;;;14.59;100.00
47330;BME280;33060;50.178;7.570;2023-10-19T06:11:31;94995.94;;;14.66;100.00
47330;BME280;33060;50.178;7.570;2023-10-19T06:13:59;94995.94;;;14.66;100.00
47330;BME280;33060;50.178;7.570;2023-10-19T06:16:26;94989.09;;;14.72;100.00
47330;BME280;33060;50.178;7.570;2023-10-19T06:18:54;95000.63;;;14.64;100.00
47330;BME280;33060;50.178;7.570;2023-10-19T06:21:21;94985.44;;;14.58;100.00
47330;BME280;33060;50.178;7.570;2023-10-19T06:23:49;94990.28;;;14.69;100.00
47330;BME280;33060;50.178;7.570;2023-10-19T06:26:17;94985.63;;;14.71;100.00
47330;BME280;33060;50.178;7.570;2023-10-19T06:28:44;94997.78;;;14.80;100.00
47330;BME280;33060;50.178;7.570;2023-10-19T06:31:11;94997.41;;;14.83;100.00
47330;BME280;33060;50.178;7.570;2023-10-19T06:33:37;94997.13;;;14.93;100.00
47330;BME280;33060;50.178;7.570;2023-10-19T06:36:08;95002.63;;;14.91;100.00
47330;BME280;33060;50.178;7.570;2023-10-19T06:38:35;95004.44;;;15.06;100.00
47330;BME280;33060;50.178;7.570;2023-10-19T06:41:12;94999.75;;;15.22;100.00
47330;BME280;33060;50.178;7.570;2023-10-19T06:43:40;95005.28;;;14.91;100.00
47330;BME280;33060;50.178;7.570;2023-10-19T06:46:08;95008.84;;;14.98;100.00
47330;BME280;33060;50.178;7.570;2023-10-19T06:48:39;95006.91;;;14.92;100.00
47330;BME280;33060;50.178;7.570;2023-10-19T06:51:06;95000.34;;;15.03;100.00
47330;BME280;33060;50.178;7.570;2023-10-19T06:53:33;95004.75;;;14.96;100.00
47330;BME280;33060;50.178;7.570;2023-10-19T06:56:00;95004.66;;;15.04;100.00
47330;BME280;33060;50.178;7.570;2023-10-19T06:58:27;95012.69;;;14.96;100.00
47330;BME280;33060;50.178;7.570;2023-10-19T07:00:54;95010.69;;;14.83;100.00
47330;BME280;33060;50.178;7.570;2023-10-19T07:03:36;95012.41;;;15.06;100.00
47330;BME280;33060;50.178;7.570;2023-10-19T07:06:04;95008.84;;;14.98;100.00
47330;BME280;33060;50.178;7.570;2023-10-19T07:08:37;95000.78;;;15.07;100.00
47330;BME280;33060;50.178;7.570;2023-10-19T07:11:04;95007.59;;;14.94;100.00
47330;BME280;33060;50.178;7.570;2023-10-19T07:13:30;95012.66;;;15.11;100.00
47330;BME280;33060;50.178;7.570;2023-10-19T07:16:00;95015.25;;;14.89;100.00
47330;BME280;33060;50.178;7.570;2023-10-19T07:18:27;95014.88;;;14.92;100.00
47330;BME280;33060;50.178;7.570;2023-10-19T07:20:55;95004.97;;;15.16;100.00
47330;BME280;33060;50.178;7.570;2023-10-19T07:23:29;95017.25;;;15.17;100.00
47330;BME280;33060;50.178;7.570;2023-10-19T07:25:56;95029.50;;;15.18;100.00
47330;BME280;33060;50.178;7.570;2023-10-19T07:28:26;95035.31;;;15.07;100.00
47330;BME280;33060;50.178;7.570;2023-10-19T07:30:54;95042.06;;;15.09;100.00
47330;BME280;33060;50.178;7.570;2023-10-19T07:33:20;95026.00;;;15.32;100.00
47330;BME280;33060;50.178;7.570;2023-10-19T07:35:50;95026.63;;;15.49;100.00
47330;BME280;33060;50.178;7.570;2023-10-19T07:38:26;95023.97;;;15.49;100.00
47330;BME280;33060;50.178;7.570;2023-10-19T07:40:55;95023.84;;;15.57;100.00
47330;BME280;33060;50.178;7.570;2023-10-19T07:43:22;95028.56;;;15.40;100.00
47330;BME280;33060;50.178;7.570;2023-10-19T07:45:50;95022.03;;;15.43;100.00
47330;BME280;33060;50.178;7.570;2023-10-19T07:48:19;95028.66;;;15.83;100.00
47330;BME280;33060;50.178;7.570;2023-10-19T07:50:45;95025.09;;;15.76;100.00
47330;BME280;33060;50.178;7.570;2023-10-19T07:53:12;95022.28;;;15.63;100.00
47330;BME280;33060;50.178;7.570;2023-10-19T07:55:39;95012.31;;;15.65;100.00
47330;BME280;33060;50.178;7.570;2023-10-19T07:58:06;95015.47;;;15.75;100.00
47330;BME280;33060;50.178;7.570;2023-10-19T08:00:33;95012.56;;;15.70;100.00
47330;BME280;33060;50.178;7.570;2023-10-19T08:03:01;94997.81;;;15.67;100.00
47330;BME280;33060;50.178;7.570;2023-10-19T08:05:29;95002.88;;;15.62;100.00
47330;BME280;33060;50.178;7.570;2023-10-19T08:07:56;95010.88;;;15.83;100.00
47330;BME280;33060;50.178;7.570;2023-10-19T08:10:27;95007.00;;;16.07;100.00
47330;BME280;33060;50.178;7.570;2023-10-19T08:12:54;95015.81;;;16.36;100.00
47330;BME280;33060;50.178;7.570;2023-10-19T08:15:22;95013.03;;;16.72;100.00
47330;BME280;33060;50.178;7.570;2023-10-19T08:17:50;95005.72;;;16.31;100.00
47330;BME280;33060;50.178;7.570;2023-10-19T08:20:17;94992.19;;;16.54;100.00
47330;BME280;33060;50.178;7.570;2023-10-19T08:22:53;95000.06;;;16.34;100.00
47330;BME280;33060;50.178;7.570;2023-10-19T08:25:20;95007.44;;;16.39;100.00
47330;BME280;33060;50.178;7.570;2023-10-19T08:27:48;95006.44;;;16.68;100.00
47330;BME280;33060;50.178;7.570;2023-10-19T08:30:18;94992.16;;;16.76;100.00
47330;BME280;33060;50.178;7.570;2023-10-19T08:32:48;94986.28;;;16.87;100.00
47330;BME280;33060;50.178;7.570;2023-10-19T08:35:16;94977.47;;;16.86;100.00
47330;BME280;33060;50.178;7.570;2023-10-19T08:37:47;94983.38;;;16.82;100.00
47330;BME280;33060;50.178;7.570;2023-10-19T08:40:15;94991.47;;;17.02;100.00
47330;BME280;33060;50.178;7.570;2023-10-19T08:42:42;94982.09;;;17.12;100.00
47330;BME280;33060;50.178;7.570;2023-10-19T08:45:10;94983.56;;;17.21;100.00
47330;BME280;33060;50.178;7.570;2023-10-19T08:47:58;94980.63;;;17.10;100.00
47330;BME280;33060;50.178;7.570;2023-10-19T08:50:31;94990.38;;;16.89;100.00
47330;BME280;33060;50.178;7.570;2023-10-19T08:53:00;94982.31;;;17.17;100.00
47330;BME280;33060;50.178;7.570;2023-10-19T08:55:31;94977.78;;;17.11;100.00
47330;BME280;33060;50.178;7.570;2023-10-19T08:58:15;94976.56;;;16.73;100.00
47330;BME280;33060;50.178;7.570;2023-10-19T09:00:51;94973.16;;;16.57;100.00
47330;BME280;33060;50.178;7.570;2023-10-19T09:03:23;94968.72;;;16.64;100.00
47330;BME280;33060;50.178;7.570;2023-10-19T09:06:03;94961.63;;;16.72;100.00
47330;BME280;33060;50.178;7.570;2023-10-19T09:08:31;94951.66;;;16.87;100.00
47330;BME280;33060;50.178;7.570;2023-10-19T09:11:08;94947.66;;;17.04;100.00
47330;BME280;33060;50.178;7.570;2023-10-19T09:13:49;94954.78;;;16.97;100.00
47330;BME280;33060;50.178;7.570;2023-10-19T09:16:17;94952.81;;;17.19;100.00
47330;BME280;33060;50.178;7.570;2023-10-19T09:18:44;94956.50;;;17.18;100.00
47330;BME280;33060;50.178;7.570;2023-10-19T09:21:15;94947.69;;;17.17;100.00
47330;BME280;33060;50.178;7.570;2023-10-19T09:23:51;94953.41;;;17.14;100.00
47330;BME280;33060;50.178;7.570;2023-10-19T09:26:18;94948.59;;;16.90;100.00
47330;BME280;33060;50.178;7.570;2023-10-19T09:28:47;94955.09;;;16.46;100.00
47330;BME280;33060;50.178;7.570;2023-10-19T09:31:15;94957.88;;;16.66;100.00
47330;BME280;33060;50.178;7.570;2023-10-19T09:33:44;94955.34;;;16.58;100.00
47330;BME280;33060;50.178;7.570;2023-10-19T09:36:13;94963.72;;;16.83;100.00
47330;BME280;33060;50.178;7.570;2023-10-19T09:38:46;94964.13;;;16.80;100.00
47330;BME280;33060;50.178;7.570;2023-10-19T09:41:21;94962.53;;;16.85;100.00
47330;BME280;33060;50.178;7.570;2023-10-19T09:43:50;94954.81;;;17.10;100.00
47330;BME280;33060;50.178;7.570;2023-10-19T09:46:26;94960.63;;;16.79;100.00
47330;BME280;33060;50.178;7.570;2023-10-19T09:48:56;94952.81;;;16.71;100.00
47330;BME280;33060;50.178;7.570;2023-10-19T09:51:23;94943.53;;;16.95;100.00
47330;BME280;33060;50.178;7.570;2023-10-19T09:54:02;94944.00;;;17.18;100.00
47330;BME280;33060;50.178;7.570;2023-10-19T09:56:36;94939.06;;;17.15;100.00
47330;BME280;33060;50.178;7.570;2023-10-19T09:59:06;94934.56;;;17.16;100.00
47330;BME280;33060;50.178;7.570;2023-10-19T10:02:10;94932.53;;;17.18;100.00
47330;BME280;33060;50.178;7.570;2023-10-19T10:04:41;94936.03;;;16.71;100.00
47330;BME280;33060;50.178;7.570;2023-10-19T10:07:10;94932.38;;;16.78;100.00
47330;BME280;33060;50.178;7.570;2023-10-19T10:09:41;94932.06;;;17.01;100.00
47330;BME280;33060;50.178;7.570;2023-10-19T10:12:24;94930.38;;;16.93;100.00
47330;BME280;33060;50.178;7.570;2023-10-19T10:14:58;94931.59;;;16.91;100.00
47330;BME280;33060;50.178;7.570;2023-10-19T10:17:26;94925.03;;;16.87;100.00
47330;BME280;33060;50.178;7.570;2023-10-19T10:20:28;94931.84;;;16.61;100.00
47330;BME280;33060;50.178;7.570;2023-10-19T10:22:44;94917.47;;;16.56;100.00
47330;BME280;33060;50.178;7.570;2023-10-19T10:25:27;94915.78;;;16.48;100.00
47330;BME280;33060;50.178;7.570;2023-10-19T10:27:55;94922.84;;;16.62;100.00
47330;BME280;33060;50.178;7.570;2023-10-19T10:30:22;94933.44;;;16.56;100.00
47330;BME280;33060;50.178;7.570;2023-10-19T10:32:50;94925.66;;;16.54;100.00
47330;BME280;33060;50.178;7.570;2023-10-19T10:35:54;94935.22;;;16.70;100.00
47330;BME280;33060;50.178;7.570;2023-10-19T10:38:21;94931.91;;;16.68;100.00
47330;BME280;33060;50.178;7.570;2023-10-19T10:40:49;94920.66;;;16.73;100.00
47330;BME280;33060;50.178;7.570;2023-10-19T10:43:18;94929.50;;;16.80;100.00
47330;BME280;33060;50.178;7.570;2023-10-19T10:45:45;94930.22;;;16.67;100.00
47330;BME280;33060;50.178;7.570;2023-10-19T10:48:16;94932.22;;;16.58;100.00
47330;BME280;33060;50.178;7.570;2023-10-19T10:50:43;94937.25;;;16.40;100.00
47330;BME280;33060;50.178;7.570;2023-10-19T10:53:12;94933.13;;;16.37;100.00
47330;BME280;33060;50.178;7.570;2023-10-19T10:55:39;94928.06;;;16.43;100.00
47330;BME280;33060;50.178;7.570;2023-10-19T10:58:06;94925.00;;;16.46;100.00
47330;BME280;33060;50.178;7.570;2023-10-19T11:00:33;94921.75;;;16.50;100.00
47330;BME280;33060;50.178;7.570;2023-10-19T11:03:03;94918.88;;;16.45;100.00
47330;BME280;33060;50.178;7.570;2023-10-19T11:05:36;94905.09;;;16.70;100.00
47330;BME280;33060;50.178;7.570;2023-10-19T11:08:11;94910.88;;;16.80;100.00
47330;BME280;33060;50.178;7.570;2023-10-19T11:10:47;94910.63;;;16.75;100.00
47330;BME280;33060;50.178;7.570;2023-10-19T11:13:16;94904.94;;;16.84;100.00
47330;BME280;33060;50.178;7.570;2023-10-19T11:15:51;94911.28;;;16.83;100.00
47330;BME280;33060;50.178;7.570;2023-10-19T11:18:40;94930.94;;;16.82;100.00
47330;BME280;33060;50.178;7.570;2023-10-19T11:21:12;94929.16;;;16.89;100.00
47330;BME280;33060;50.178;7.570;2023-10-19T11:23:48;94922.03;;;16.62;100.00
47330;BME280;33060;50.178;7.570;2023-10-19T11:26:22;94907.06;;;17.02;100.00
47330;BME280;33060;50.178;7.570;2023-10-19T11:28:58;94913.09;;;17.31;100.00
47330;BME280;33060;50.178;7.570;2023-10-19T11:31:25;94916.34;;;17.26;100.00
47330;BME280;33060;50.178;7.570;2023-10-19T11:33:54;94910.25;;;17.39;100.00
47330;BME280;33060;50.178;7.570;2023-10-19T11:36:24;94913.84;;;17.05;100.00
47330;BME280;33060;50.178;7.570;2023-10-19T11:38:53;94903.25;;;17.31;100.00
47330;BME280;33060;50.178;7.570;2023-10-19T11:41:20;94909.47;;;16.90;100.00
47330;BME280;33060;50.178;7.570;2023-10-19T11:43:48;94905.59;;;16.58;100.00
47330;BME280;33060;50.178;7.570;2023-10-19T11:46:16;94910.13;;;16.58;100.00
47330;BME280;33060;50.178;7.570;2023-10-19T11:48:51;94888.31;;;16.76;100.00
47330;BME280;33060;50.178;7.570;2023-10-19T11:51:18;94891.88;;;16.55;100.00
47330;BME280;33060;50.178;7.570;2023-10-19T11:53:45;94900.84;;;16.47;100.00
47330;BME280;33060;50.178;7.570;2023-10-19T11:56:13;94900.13;;;16.66;100.00
47330;BME280;33060;50.178;7.570;2023-10-19T11:58:40;94908.09;;;16.60;100.00
47330;BME280;33060;50.178;7.570;2023-10-19T12:01:10;94903.63;;;16.32;100.00
47330;BME280;33060;50.178;7.570;2023-10-19T12:03:39;94906.47;;;16.31;100.00
47330;BME280;33060;50.178;7.570;2023-10-19T12:06:07;94905.81;;;16.22;100.00
47330;BME280;33060;50.178;7.570;2023-10-19T12:08:35;94897.56;;;16.45;100.00
47330;BME280;33060;50.178;7.570;2023-10-19T12:11:03;94903.50;;;16.47;100.00
47330;BME280;33060;50.178;7.570;2023-10-19T12:13:30;94911.75;;;16.52;100.00
47330;BME280;33060;50.178;7.570;2023-10-19T12:15:58;94910.91;;;16.52;100.00
47330;BME280;33060;50.178;7.570;2023-10-19T12:18:25;94905.59;;;16.58;100.00
47330;BME280;33060;50.178;7.570;2023-10-19T12:20:55;94907.09;;;16.33;100.00
47330;BME280;33060;50.178;7.570;2023-10-19T12:23:26;94903.41;;;16.62;100.00
47330;BME280;33060;50.178;7.570;2023-10-19T12:25:53;94898.44;;;16.59;100.00
47330;BME280;33060;50.178;7.570;2023-10-19T12:28:23;94901.00;;;16.39;100.00
47330;BME280;33060;50.178;7.570;2023-10-19T12:30:51;94899.41;;;16.45;100.00
47330;BME280;33060;50.178;7.570;2023-10-19T12:33:18;94894.34;;;16.56;100.00
47330;BME280;33060;50.178;7.570;2023-10-19T12:35:46;94886.56;;;16.55;100.00
47330;BME280;33060;50.178;7.570;2023-10-19T12:38:24;94887.19;;;16.57;100.00
47330;BME280;33060;50.178;7.570;2023-10-19T12:40:52;94884.63;;;16.70;100.00
47330;BME280;33060;50.178;7.570;2023-10-19T12:43:19;94875.44;;;16.79;100.00
47330;BME280;33060;50.178;7.570;2023-10-19T12:45:45;94867.75;;;17.17;100.00
47330;BME280;33060;50.178;7.570;2023-10-19T12:48:17;94872.25;;;17.04;100.00
47330;BME280;33060;50.178;7.570;2023-10-19T12:50:44;94869.69;;;16.76;100.00
47330;BME280;33060;50.178;7.570;2023-10-19T12:53:10;94858.13;;;17.03;100.00
47330;BME280;33060;50.178;7.570;2023-10-19T12:55:37;94856.91;;;17.19;100.00
47330;BME280;33060;50.178;7.570;2023-10-19T12:58:04;94848.59;;;17.82;100.00
47330;BME280;33060;50.178;7.570;2023-10-19T13:00:36;94840.78;;;17.93;100.00
47330;BME280;33060;50.178;7.570;2023-10-19T13:03:07;94851.44;;;17.93;100.00
47330;BME280;33060;50.178;7.570;2023-10-19T13:05:35;94851.03;;;17.70;100.00
47330;BME280;33060;50.178;7.570;2023-10-19T13:08:11;94852.25;;;18.00;100.00
47330;BME280;33060;50.178;7.570;2023-10-19T13:10:42;94841.38;;;17.89;100.00